sensor_id;sensor_type;location;lat;lon;timestamp;temperature;humidity
22130;DHT22;11231;50.746;4.272;2024-01-11T00:00:33;-1.40;99.90
22130;DHT22;11231;50.746;4.272;2024-01-11T00:02:58;-1.40;99.90
22130;DHT22;11231;50.746;4.272;2024-01-11T00:05:24;-1.40;99.90
22130;DHT22;11231;50.746;4.272;2024-01-11T00:07:50;-1.60;99.90
22130;DHT22;11231;50.746;4.272;2024-01-11T00:10:16;-1.70;99.90
22130;DHT22;11231;50.746;4.272;2024-01-11T00:12:42;-1.70;99.90
22130;DHT22;11231;50.746;4.272;2024-01-11T00:15:08;-1.90;99.90
22130;DHT22;11231;50.746;4.272;2024-01-11T00:17:34;-2.00;99.90
22130;DHT22;11231;50.746;4.272;2024-01-11T00:20:02;-1.90;99.90
22130;DHT22;11231;50.746;4.272;2024-01-11T00:22:28;-1.80;99.90
22130;DHT22;11231;50.746;4.272;2024-01-11T00:24:54;-1.60;99.90
22130;DHT22;11231;50.746;4.272;2024-01-11T00:27:20;-1.50;99.90
22130;DHT22;11231;50.746;4.272;2024-01-11T00:29:46;-1.40;99.90
22130;DHT22;11231;50.746;4.272;2024-01-11T00:32:12;-1.40;99.90
22130;DHT22;11231;50.746;4.272;2024-01-11T00:34:38;-1.40;99.90
22130;DHT22;11231;50.746;4.272;2024-01-11T00:37:04;-1.30;99.90
22130;DHT22;11231;50.746;4.272;2024-01-11T00:39:30;-1.20;99.90
22130;DHT22;11231;50.746;4.272;2024-01-11T00:41:56;-1.20;99.90
22130;DHT22;11231;50.746;4.272;2024-01-11T00:44:23;-1.20;99.90
22130;DHT22;11231;50.746;4.272;2024-01-11T00:46:48;-1.30;99.90
22130;DHT22;11231;50.746;4.272;2024-01-11T00:49:14;-1.40;99.90
22130;DHT22;11231;50.746;4.272;2024-01-11T00:51:40;-1.30;99.90
22130;DHT22;11231;50.746;4.272;2024-01-11T00:54:06;-1.10;99.90
22130;DHT22;11231;50.746;4.272;2024-01-11T00:56:31;-1.20;99.90
22130;DHT22;11231;50.746;4.272;2024-01-11T00:58:57;-1.30;99.90
22130;DHT22;11231;50.746;4.272;2024-01-11T01:01:23;-1.30;99.90
22130;DHT22;11231;50.746;4.272;2024-01-11T01:03:49;-1.30;99.90
22130;DHT22;11231;50.746;4.272;2024-01-11T01:06:15;-1.40;99.90
22130;DHT22;11231;50.746;4.272;2024-01-11T01:08:40;-1.40;99.90
22130;DHT22;11231;50.746;4.272;2024-01-11T01:11:06;-1.30;99.90
22130;DHT22;11231;50.746;4.272;2024-01-11T01:13:32;-1.30;99.90
22130;DHT22;11231;50.746;4.272;2024-01-11T01:15:58;-1.20;99.90
22130;DHT22;11231;50.746;4.272;2024-01-11T01:18:24;-1.40;99.90
22130;DHT22;11231;50.746;4.272;2024-01-11T01:20:50;-1.50;99.90
22130;DHT22;11231;50.746;4.272;2024-01-11T01:23:16;-1.40;99.90
22130;DHT22;11231;50.746;4.272;2024-01-11T01:25:42;-1.40;99.90
22130;DHT22;11231;50.746;4.272;2024-01-11T01:28:08;-1.50;99.90
22130;DHT22;11231;50.746;4.272;2024-01-11T01:30:34;-1.60;99.90
22130;DHT22;11231;50.746;4.272;2024-01-11T01:33:00;-1.70;99.90
22130;DHT22;11231;50.746;4.272;2024-01-11T01:35:26;-1.80;99.90
22130;DHT22;11231;50.746;4.272;2024-01-11T01:37:52;-1.80;99.90
22130;DHT22;11231;50.746;4.272;2024-01-11T01:40:18;-2.00;99.90
22130;DHT22;11231;50.746;4.272;2024-01-11T01:42:44;-2.00;99.90
22130;DHT22;11231;50.746;4.272;2024-01-11T01:45:11;-1.90;99.90
22130;DHT22;11231;50.746;4.272;2024-01-11T01:47:40;-1.70;99.90
22130;DHT22;11231;50.746;4.272;2024-01-11T01:50:10;-1.70;99.90
22130;DHT22;11231;50.746;4.272;2024-01-11T01:52:37;-1.80;99.90
22130;DHT22;11231;50.746;4.272;2024-01-11T01:55:04;-1.90;99.90
22130;DHT22;11231;50.746;4.272;2024-01-11T01:57:32;-2.00;99.90
22130;DHT22;11231;50.746;4.272;2024-01-11T02:00:00;-1.90;99.90
22130;DHT22;11231;50.746;4.272;2024-01-11T02:02:28;-1.80;99.90
22130;DHT22;11231;50.746;4.272;2024-01-11T02:04:56;-1.70;99.90
22130;DHT22;11231;50.746;4.272;2024-01-11T02:07:22;-1.70;99.90
22130;DHT22;11231;50.746;4.272;2024-01-11T02:09:50;-1.70;99.90
22130;DHT22;11231;50.746;4.272;2024-01-11T02:12:17;-1.80;99.90
22130;DHT22;11231;50.746;4.272;2024-01-11T02:14:43;-1.80;99.90
22130;DHT22;11231;50.746;4.272;2024-01-11T02:17:09;-1.80;99.90
22130;DHT22;11231;50.746;4.272;2024-01-11T02:19:36;-1.70;99.90
22130;DHT22;11231;50.746;4.272;2024-01-11T02:22:21;-1.70;99.90
22130;DHT22;11231;50.746;4.272;2024-01-11T02:24:48;-1.80;99.90
22130;DHT22;11231;50.746;4.272;2024-01-11T02:27:13;-1.80;99.90
22130;DHT22;11231;50.746;4.272;2024-01-11T02:29:40;-1.80;99.90
22130;DHT22;11231;50.746;4.272;2024-01-11T02:32:05;-1.80;99.90
22130;DHT22;11231;50.746;4.272;2024-01-11T02:34:32;-1.70;99.90
22130;DHT22;11231;50.746;4.272;2024-01-11T02:36:58;-1.70;99.90
22130;DHT22;11231;50.746;4.272;2024-01-11T02:39:25;-1.80;99.90
22130;DHT22;11231;50.746;4.272;2024-01-11T02:41:52;-2.10;99.90
22130;DHT22;11231;50.746;4.272;2024-01-11T02:44:18;-2.20;99.90
22130;DHT22;11231;50.746;4.272;2024-01-11T02:46:44;-2.30;99.90
22130;DHT22;11231;50.746;4.272;2024-01-11T02:49:10;-2.40;99.90
22130;DHT22;11231;50.746;4.272;2024-01-11T02:51:35;-2.30;99.90
22130;DHT22;11231;50.746;4.272;2024-01-11T02:54:02;-2.10;99.90
22130;DHT22;11231;50.746;4.272;2024-01-11T02:56:28;-2.00;99.90
22130;DHT22;11231;50.746;4.272;2024-01-11T02:58:54;-1.90;99.90
22130;DHT22;11231;50.746;4.272;2024-01-11T03:01:19;-1.80;99.90
22130;DHT22;11231;50.746;4.272;2024-01-11T03:03:45;-1.80;99.90
22130;DHT22;11231;50.746;4.272;2024-01-11T03:06:11;-1.80;99.90
22130;DHT22;11231;50.746;4.272;2024-01-11T03:08:37;-1.80;99.90
22130;DHT22;11231;50.746;4.272;2024-01-11T03:11:03;-1.80;99.90
22130;DHT22;11231;50.746;4.272;2024-01-11T03:13:29;-1.80;99.90
22130;DHT22;11231;50.746;4.272;2024-01-11T03:15:55;-1.80;99.90
22130;DHT22;11231;50.746;4.272;2024-01-11T03:18:23;-1.90;99.90
22130;DHT22;11231;50.746;4.272;2024-01-11T03:20:48;-1.90;99.90
22130;DHT22;11231;50.746;4.272;2024-01-11T03:23:14;-1.90;99.90
22130;DHT22;11231;50.746;4.272;2024-01-11T03:25:40;-2.10;99.90
22130;DHT22;11231;50.746;4.272;2024-01-11T03:28:06;-2.30;99.90
22130;DHT22;11231;50.746;4.272;2024-01-11T03:30:32;-2.30;99.90
22130;DHT22;11231;50.746;4.272;2024-01-11T03:32:58;-2.20;99.90
22130;DHT22;11231;50.746;4.272;2024-01-11T03:35:23;-2.30;99.90
22130;DHT22;11231;50.746;4.272;2024-01-11T03:37:49;-2.30;99.90
22130;DHT22;11231;50.746;4.272;2024-01-11T03:40:15;-2.40;99.90
22130;DHT22;11231;50.746;4.272;2024-01-11T03:42:42;-2.60;99.90
22130;DHT22;11231;50.746;4.272;2024-01-11T03:45:08;-2.70;99.90
22130;DHT22;11231;50.746;4.272;2024-01-11T03:47:34;-2.50;99.90
22130;DHT22;11231;50.746;4.272;2024-01-11T03:50:00;-2.50;99.90
22130;DHT22;11231;50.746;4.272;2024-01-11T03:52:26;-2.50;99.90
22130;DHT22;11231;50.746;4.272;2024-01-11T03:54:52;-2.30;99.90
22130;DHT22;11231;50.746;4.272;2024-01-11T03:57:17;-2.10;99.90
22130;DHT22;11231;50.746;4.272;2024-01-11T03:59:43;-2.20;99.90
22130;DHT22;11231;50.746;4.272;2024-01-11T04:02:10;-2.20;99.90
22130;DHT22;11231;50.746;4.272;2024-01-11T04:04:36;-2.30;99.90
22130;DHT22;11231;50.746;4.272;2024-01-11T04:07:02;-2.20;99.90
22130;DHT22;11231;50.746;4.272;2024-01-11T04:09:28;-2.10;99.90
22130;DHT22;11231;50.746;4.272;2024-01-11T04:11:54;-2.10;99.90
22130;DHT22;11231;50.746;4.272;2024-01-11T04:14:19;-2.10;99.90
22130;DHT22;11231;50.746;4.272;2024-01-11T04:16:45;-2.20;99.90
22130;DHT22;11231;50.746;4.272;2024-01-11T04:19:12;-2.20;99.90
22130;DHT22;11231;50.746;4.272;2024-01-11T04:21:38;-2.30;99.90
22130;DHT22;11231;50.746;4.272;2024-01-11T04:24:07;-2.20;99.90
22130;DHT22;11231;50.746;4.272;2024-01-11T04:26:33;-2.10;99.90
22130;DHT22;11231;50.746;4.272;2024-01-11T04:28:59;-2.10;99.90
22130;DHT22;11231;50.746;4.272;2024-01-11T04:31:25;-2.10;99.90
22130;DHT22;11231;50.746;4.272;2024-01-11T04:33:51;-2.20;99.90
22130;DHT22;11231;50.746;4.272;2024-01-11T04:36:17;-2.20;99.90
22130;DHT22;11231;50.746;4.272;2024-01-11T04:38:43;-2.30;99.90
22130;DHT22;11231;50.746;4.272;2024-01-11T04:41:13;-2.30;99.90
22130;DHT22;11231;50.746;4.272;2024-01-11T04:43:40;-2.20;99.90
22130;DHT22;11231;50.746;4.272;2024-01-11T04:46:18;-2.10;99.90
22130;DHT22;11231;50.746;4.272;2024-01-11T04:48:46;-2.20;99.90
22130;DHT22;11231;50.746;4.272;2024-01-11T04:51:13;-2.30;99.90
22130;DHT22;11231;50.746;4.272;2024-01-11T04:53:42;-2.30;99.90
22130;DHT22;11231;50.746;4.272;2024-01-11T04:56:13;-2.30;99.90
22130;DHT22;11231;50.746;4.272;2024-01-11T04:58:41;-2.30;99.90
22130;DHT22;11231;50.746;4.272;2024-01-11T05:01:12;-2.30;99.90
22130;DHT22;11231;50.746;4.272;2024-01-11T05:03:38;-2.20;99.90
22130;DHT22;11231;50.746;4.272;2024-01-11T05:06:04;-2.20;99.90
22130;DHT22;11231;50.746;4.272;2024-01-11T05:08:30;-2.20;99.90
22130;DHT22;11231;50.746;4.272;2024-01-11T05:10:56;-2.20;99.90
22130;DHT22;11231;50.746;4.272;2024-01-11T05:13:22;-2.10;99.90
22130;DHT22;11231;50.746;4.272;2024-01-11T05:15:48;-2.00;99.90
22130;DHT22;11231;50.746;4.272;2024-01-11T05:18:14;-1.90;99.90
22130;DHT22;11231;50.746;4.272;2024-01-11T05:20:40;-1.90;99.90
22130;DHT22;11231;50.746;4.272;2024-01-11T05:23:06;-1.90;99.90
22130;DHT22;11231;50.746;4.272;2024-01-11T05:25:32;-2.10;99.90
22130;DHT22;11231;50.746;4.272;2024-01-11T05:28:00;-2.20;99.90
22130;DHT22;11231;50.746;4.272;2024-01-11T05:30:26;-2.30;99.90
22130;DHT22;11231;50.746;4.272;2024-01-11T05:32:53;-2.30;99.90
22130;DHT22;11231;50.746;4.272;2024-01-11T05:35:19;-2.30;99.90
22130;DHT22;11231;50.746;4.272;2024-01-11T05:37:44;-2.30;99.90
22130;DHT22;11231;50.746;4.272;2024-01-11T05:40:10;-2.30;99.90
22130;DHT22;11231;50.746;4.272;2024-01-11T05:42:36;-2.40;99.90
22130;DHT22;11231;50.746;4.272;2024-01-11T05:45:06;-2.40;99.90
22130;DHT22;11231;50.746;4.272;2024-01-11T05:47:32;-2.40;99.90
22130;DHT22;11231;50.746;4.272;2024-01-11T05:49:58;-2.40;99.90
22130;DHT22;11231;50.746;4.272;2024-01-11T05:52:24;-2.40;99.90
22130;DHT22;11231;50.746;4.272;2024-01-11T05:54:50;-2.40;99.90
22130;DHT22;11231;50.746;4.272;2024-01-11T05:57:16;-2.50;99.90
22130;DHT22;11231;50.746;4.272;2024-01-11T05:59:45;-2.40;99.90
22130;DHT22;11231;50.746;4.272;2024-01-11T06:02:12;-2.30;99.90
22130;DHT22;11231;50.746;4.272;2024-01-11T06:04:37;-2.30;99.90
22130;DHT22;11231;50.746;4.272;2024-01-11T06:07:03;-2.40;99.90
22130;DHT22;11231;50.746;4.272;2024-01-11T06:09:29;-2.60;99.90
22130;DHT22;11231;50.746;4.272;2024-01-11T06:11:55;-2.70;99.90
22130;DHT22;11231;50.746;4.272;2024-01-11T06:14:21;-2.80;99.90
22130;DHT22;11231;50.746;4.272;2024-01-11T06:16:47;-2.70;99.90
22130;DHT22;11231;50.746;4.272;2024-01-11T06:19:13;-2.70;99.90
22130;DHT22;11231;50.746;4.272;2024-01-11T06:21:39;-2.60;99.90
22130;DHT22;11231;50.746;4.272;2024-01-11T06:24:05;-2.60;99.90
22130;DHT22;11231;50.746;4.272;2024-01-11T06:26:30;-2.40;99.90
22130;DHT22;11231;50.746;4.272;2024-01-11T06:28:56;-2.50;99.90
22130;DHT22;11231;50.746;4.272;2024-01-11T06:31:22;-2.50;99.90
22130;DHT22;11231;50.746;4.272;2024-01-11T06:33:48;-2.50;99.90
22130;DHT22;11231;50.746;4.272;2024-01-11T06:36:14;-2.50;99.90
22130;DHT22;11231;50.746;4.272;2024-01-11T06:38:39;-2.40;99.90
22130;DHT22;11231;50.746;4.272;2024-01-11T06:41:05;-2.30;99.90
22130;DHT22;11231;50.746;4.272;2024-01-11T06:43:31;-2.20;99.90
22130;DHT22;11231;50.746;4.272;2024-01-11T06:46:02;-2.10;99.90
22130;DHT22;11231;50.746;4.272;2024-01-11T06:48:28;-2.10;99.90
22130;DHT22;11231;50.746;4.272;2024-01-11T06:50:54;-2.10;99.90
22130;DHT22;11231;50.746;4.272;2024-01-11T06:53:20;-2.00;99.90
22130;DHT22;11231;50.746;4.272;2024-01-11T06:55:46;-1.90;99.90
22130;DHT22;11231;50.746;4.272;2024-01-11T06:58:13;-1.90;99.90
22130;DHT22;11231;50.746;4.272;2024-01-11T07:00:39;-2.00;99.90
22130;DHT22;11231;50.746;4.272;2024-01-11T07:03:11;-2.10;99.90
22130;DHT22;11231;50.746;4.272;2024-01-11T07:05:37;-2.00;99.90
22130;DHT22;11231;50.746;4.272;2024-01-11T07:08:03;-1.90;99.90
22130;DHT22;11231;50.746;4.272;2024-01-11T07:10:30;-1.90;99.90
22130;DHT22;11231;50.746;4.272;2024-01-11T07:12:55;-1.90;99.90
22130;DHT22;11231;50.746;4.272;2024-01-11T07:15:21;-2.00;99.90
22130;DHT22;11231;50.746;4.272;2024-01-11T07:17:48;-2.00;99.90
22130;DHT22;11231;50.746;4.272;2024-01-11T07:20:13;-2.10;99.90
22130;DHT22;11231;50.746;4.272;2024-01-11T07:22:42;-2.10;99.90
22130;DHT22;11231;50.746;4.272;2024-01-11T07:25:08;-2.10;99.90
22130;DHT22;11231;50.746;4.272;2024-01-11T07:27:33;-2.10;99.90
22130;DHT22;11231;50.746;4.272;2024-01-11T07:30:00;-2.10;99.90
22130;DHT22;11231;50.746;4.272;2024-01-11T07:32:28;-2.10;99.90
22130;DHT22;11231;50.746;4.272;2024-01-11T07:34:53;-2.10;99.90
22130;DHT22;11231;50.746;4.272;2024-01-11T07:37:19;-2.20;99.90
22130;DHT22;11231;50.746;4.272;2024-01-11T07:39:45;-2.20;99.90
22130;DHT22;11231;50.746;4.272;2024-01-11T07:42:11;-2.30;99.90
22130;DHT22;11231;50.746;4.272;2024-01-11T07:44:37;-2.30;99.90
22130;DHT22;11231;50.746;4.272;2024-01-11T07:47:03;-2.30;99.90
22130;DHT22;11231;50.746;4.272;2024-01-11T07:49:28;-2.30;99.90
22130;DHT22;11231;50.746;4.272;2024-01-11T07:51:54;-2.20;99.90
22130;DHT22;11231;50.746;4.272;2024-01-11T07:54:20;-2.30;99.90
22130;DHT22;11231;50.746;4.272;2024-01-11T07:56:46;-2.30;99.90
22130;DHT22;11231;50.746;4.272;2024-01-11T07:59:12;-2.30;99.90
22130;DHT22;11231;50.746;4.272;2024-01-11T08:01:40;-2.30;99.90
22130;DHT22;11231;50.746;4.272;2024-01-11T08:04:06;-2.30;99.90
22130;DHT22;11231;50.746;4.272;2024-01-11T08:06:32;-2.40;99.90
22130;DHT22;11231;50.746;4.272;2024-01-11T08:08:58;-2.40;99.90
22130;DHT22;11231;50.746;4.272;2024-01-11T08:11:24;-2.40;99.90
22130;DHT22;11231;50.746;4.272;2024-01-11T08:13:50;-2.40;99.90
22130;DHT22;11231;50.746;4.272;2024-01-11T08:16:16;-2.30;99.90
22130;DHT22;11231;50.746;4.272;2024-01-11T08:18:44;-2.30;99.90
22130;DHT22;11231;50.746;4.272;2024-01-11T08:21:10;-2.30;99.90
22130;DHT22;11231;50.746;4.272;2024-01-11T08:23:42;-2.30;99.90
22130;DHT22;11231;50.746;4.272;2024-01-11T08:26:13;-2.30;99.90
22130;DHT22;11231;50.746;4.272;2024-01-11T08:28:39;-2.30;99.90
22130;DHT22;11231;50.746;4.272;2024-01-11T08:31:06;-2.40;99.90
22130;DHT22;11231;50.746;4.272;2024-01-11T08:33:32;-2.30;99.90
22130;DHT22;11231;50.746;4.272;2024-01-11T08:36:01;-2.40;99.90
22130;DHT22;11231;50.746;4.272;2024-01-11T08:38:29;-2.30;99.90
22130;DHT22;11231;50.746;4.272;2024-01-11T08:40:55;-2.40;99.90
22130;DHT22;11231;50.746;4.272;2024-01-11T08:43:21;-2.50;99.90
22130;DHT22;11231;50.746;4.272;2024-01-11T08:45:47;-2.50;99.90
22130;DHT22;11231;50.746;4.272;2024-01-11T08:48:13;-2.50;99.90
22130;DHT22;11231;50.746;4.272;2024-01-11T08:50:39;-2.40;99.90
22130;DHT22;11231;50.746;4.272;2024-01-11T08:53:05;-2.40;99.90
22130;DHT22;11231;50.746;4.272;2024-01-11T08:55:30;-2.50;99.90
22130;DHT22;11231;50.746;4.272;2024-01-11T08:57:56;-2.50;99.90
22130;DHT22;11231;50.746;4.272;2024-01-11T09:00:22;-2.40;99.90
22130;DHT22;11231;50.746;4.272;2024-01-11T09:02:48;-2.40;99.90
22130;DHT22;11231;50.746;4.272;2024-01-11T09:05:15;-2.20;99.90
22130;DHT22;11231;50.746;4.272;2024-01-11T09:07:40;-2.00;99.90
22130;DHT22;11231;50.746;4.272;2024-01-11T09:10:07;-1.80;99.90
22130;DHT22;11231;50.746;4.272;2024-01-11T09:12:39;-1.70;99.90
22130;DHT22;11231;50.746;4.272;2024-01-11T09:15:06;-1.80;99.90
22130;DHT22;11231;50.746;4.272;2024-01-11T09:17:32;-1.80;99.90
22130;DHT22;11231;50.746;4.272;2024-01-11T09:19:58;-1.80;99.90
22130;DHT22;11231;50.746;4.272;2024-01-11T09:22:24;-1.90;99.90
22130;DHT22;11231;50.746;4.272;2024-01-11T09:24:50;-1.70;99.90
22130;DHT22;11231;50.746;4.272;2024-01-11T09:27:15;-1.70;99.90
22130;DHT22;11231;50.746;4.272;2024-01-11T09:29:45;-1.60;99.90
22130;DHT22;11231;50.746;4.272;2024-01-11T09:32:11;-1.40;99.90
22130;DHT22;11231;50.746;4.272;2024-01-11T09:34:37;-1.30;99.90
22130;DHT22;11231;50.746;4.272;2024-01-11T09:37:03;-1.30;99.90
22130;DHT22;11231;50.746;4.272;2024-01-11T09:39:29;-1.30;99.90
22130;DHT22;11231;50.746;4.272;2024-01-11T09:42:08;-1.30;99.90
22130;DHT22;11231;50.746;4.272;2024-01-11T09:44:37;-1.20;99.90
22130;DHT22;11231;50.746;4.272;2024-01-11T09:47:08;-1.20;99.90
22130;DHT22;11231;50.746;4.272;2024-01-11T09:49:36;-1.20;99.90
22130;DHT22;11231;50.746;4.272;2024-01-11T09:52:05;-1.20;99.90
22130;DHT22;11231;50.746;4.272;2024-01-11T09:54:30;-1.30;99.90
22130;DHT22;11231;50.746;4.272;2024-01-11T09:56:59;-1.10;99.90
22130;DHT22;11231;50.746;4.272;2024-01-11T09:59:25;-1.10;99.90
22130;DHT22;11231;50.746;4.272;2024-01-11T10:01:51;-1.10;99.90
22130;DHT22;11231;50.746;4.272;2024-01-11T10:04:18;-1.00;99.90
22130;DHT22;11231;50.746;4.272;2024-01-11T10:06:44;-1.00;99.90
22130;DHT22;11231;50.746;4.272;2024-01-11T10:09:10;-1.10;99.90
22130;DHT22;11231;50.746;4.272;2024-01-11T10:11:37;-1.00;99.90
22130;DHT22;11231;50.746;4.272;2024-01-11T10:14:03;-1.00;99.90
22130;DHT22;11231;50.746;4.272;2024-01-11T10:16:30;-1.00;99.90
22130;DHT22;11231;50.746;4.272;2024-01-11T10:18:57;-1.30;99.90
22130;DHT22;11231;50.746;4.272;2024-01-11T10:21:24;-1.40;99.90
22130;DHT22;11231;50.746;4.272;2024-01-11T10:23:50;-1.30;99.90
22130;DHT22;11231;50.746;4.272;2024-01-11T10:26:16;-0.90;99.90
22130;DHT22;11231;50.746;4.272;2024-01-11T10:28:45;0.50;99.90
22130;DHT22;11231;50.746;4.272;2024-01-11T10:31:11;1.70;99.90
22130;DHT22;11231;50.746;4.272;2024-01-11T10:33:37;2.80;99.90
22130;DHT22;11231;50.746;4.272;2024-01-11T10:36:03;4.20;99.90
22130;DHT22;11231;50.746;4.272;2024-01-11T10:38:35;5.40;99.90
22130;DHT22;11231;50.746;4.272;2024-01-11T10:41:04;5.70;99.90
22130;DHT22;11231;50.746;4.272;2024-01-11T10:43:36;6.30;99.90
22130;DHT22;11231;50.746;4.272;2024-01-11T10:46:04;6.80;99.90
22130;DHT22;11231;50.746;4.272;2024-01-11T10:48:39;8.10;99.90
22130;DHT22;11231;50.746;4.272;2024-01-11T10:51:08;8.70;99.90
22130;DHT22;11231;50.746;4.272;2024-01-11T10:53:47;9.30;99.90
22130;DHT22;11231;50.746;4.272;2024-01-11T10:56:14;9.80;99.90
22130;DHT22;11231;50.746;4.272;2024-01-11T10:58:42;10.30;99.90
22130;DHT22;11231;50.746;4.272;2024-01-11T11:01:10;11.20;99.90
22130;DHT22;11231;50.746;4.272;2024-01-11T11:03:37;10.50;99.90
22130;DHT22;11231;50.746;4.272;2024-01-11T11:06:05;9.40;99.90
22130;DHT22;11231;50.746;4.272;2024-01-11T11:08:36;9.10;99.90
22130;DHT22;11231;50.746;4.272;2024-01-11T11:11:03;8.20;99.90
22130;DHT22;11231;50.746;4.272;2024-01-11T11:13:33;7.50;99.90
22130;DHT22;11231;50.746;4.272;2024-01-11T11:16:02;7.10;99.90
22130;DHT22;11231;50.746;4.272;2024-01-11T11:18:32;6.80;99.90
22130;DHT22;11231;50.746;4.272;2024-01-11T11:21:00;6.60;99.90
22130;DHT22;11231;50.746;4.272;2024-01-11T11:23:26;6.20;99.90
22130;DHT22;11231;50.746;4.272;2024-01-11T11:25:54;5.80;99.90
22130;DHT22;11231;50.746;4.272;2024-01-11T11:28:22;6.00;99.90
22130;DHT22;11231;50.746;4.272;2024-01-11T11:30:49;6.40;99.90
22130;DHT22;11231;50.746;4.272;2024-01-11T11:33:25;6.60;99.90
22130;DHT22;11231;50.746;4.272;2024-01-11T11:36:00;6.50;99.90
22130;DHT22;11231;50.746;4.272;2024-01-11T11:38:30;6.90;99.90
22130;DHT22;11231;50.746;4.272;2024-01-11T11:40:57;6.90;99.90
22130;DHT22;11231;50.746;4.272;2024-01-11T11:43:26;6.60;99.90
22130;DHT22;11231;50.746;4.272;2024-01-11T11:45:52;6.20;99.90
22130;DHT22;11231;50.746;4.272;2024-01-11T11:51:05;6.10;99.90
22130;DHT22;11231;50.746;4.272;2024-01-11T11:53:35;5.80;99.90
22130;DHT22;11231;50.746;4.272;2024-01-11T11:56:02;5.50;99.90
22130;DHT22;11231;50.746;4.272;2024-01-11T11:58:32;5.40;99.90
22130;DHT22;11231;50.746;4.272;2024-01-11T12:00:59;5.40;99.90
22130;DHT22;11231;50.746;4.272;2024-01-11T12:03:32;5.70;99.90
22130;DHT22;11231;50.746;4.272;2024-01-11T12:05:59;6.20;99.90
22130;DHT22;11231;50.746;4.272;2024-01-11T12:08:26;6.20;99.90
22130;DHT22;11231;50.746;4.272;2024-01-11T12:10:52;6.70;99.90
22130;DHT22;11231;50.746;4.272;2024-01-11T12:13:18;6.90;99.90
22130;DHT22;11231;50.746;4.272;2024-01-11T12:15:44;7.10;99.90
22130;DHT22;11231;50.746;4.272;2024-01-11T12:18:10;7.50;99.90
22130;DHT22;11231;50.746;4.272;2024-01-11T12:20:36;7.60;99.90
22130;DHT22;11231;50.746;4.272;2024-01-11T12:23:02;7.20;99.90
22130;DHT22;11231;50.746;4.272;2024-01-11T12:25:28;6.80;99.90
22130;DHT22;11231;50.746;4.272;2024-01-11T12:27:55;6.60;99.90
22130;DHT22;11231;50.746;4.272;2024-01-11T12:30:26;6.60;99.90
22130;DHT22;11231;50.746;4.272;2024-01-11T12:32:53;6.40;99.90
22130;DHT22;11231;50.746;4.272;2024-01-11T12:35:20;5.90;99.90
22130;DHT22;11231;50.746;4.272;2024-01-11T12:37:55;5.80;99.90
22130;DHT22;11231;50.746;4.272;2024-01-11T12:40:24;5.70;99.90
22130;DHT22;11231;50.746;4.272;2024-01-11T12:42:49;5.50;99.90
22130;DHT22;11231;50.746;4.272;2024-01-11T12:45:16;5.50;99.90
22130;DHT22;11231;50.746;4.272;2024-01-11T12:47:43;5.40;99.90
22130;DHT22;11231;50.746;4.272;2024-01-11T12:50:10;5.30;99.90
22130;DHT22;11231;50.746;4.272;2024-01-11T12:52:38;5.10;99.90
22130;DHT22;11231;50.746;4.272;2024-01-11T12:55:07;5.20;99.90
22130;DHT22;11231;50.746;4.272;2024-01-11T12:57:33;5.40;99.90
22130;DHT22;11231;50.746;4.272;2024-01-11T13:00:12;5.00;99.90
22130;DHT22;11231;50.746;4.272;2024-01-11T13:02:39;5.00;99.90
22130;DHT22;11231;50.746;4.272;2024-01-11T13:05:06;4.80;99.90
22130;DHT22;11231;50.746;4.272;2024-01-11T13:07:36;4.60;99.90
22130;DHT22;11231;50.746;4.272;2024-01-11T13:10:03;4.50;99.90
22130;DHT22;11231;50.746;4.272;2024-01-11T13:12:30;4.40;99.90
22130;DHT22;11231;50.746;4.272;2024-01-11T13:14:55;4.30;99.90
22130;DHT22;11231;50.746;4.272;2024-01-11T13:17:21;3.80;99.90
22130;DHT22;11231;50.746;4.272;2024-01-11T13:19:47;3.50;99.90
22130;DHT22;11231;50.746;4.272;2024-01-11T13:22:13;3.10;99.90
22130;DHT22;11231;50.746;4.272;2024-01-11T13:24:39;3.00;99.90
22130;DHT22;11231;50.746;4.272;2024-01-11T13:27:04;2.70;99.90
22130;DHT22;11231;50.746;4.272;2024-01-11T13:29:30;2.60;99.90
22130;DHT22;11231;50.746;4.272;2024-01-11T13:31:56;2.60;99.90
22130;DHT22;11231;50.746;4.272;2024-01-11T13:34:22;2.60;99.90
22130;DHT22;11231;50.746;4.272;2024-01-11T13:36:48;2.60;99.90
22130;DHT22;11231;50.746;4.272;2024-01-11T13:39:14;2.60;99.90
22130;DHT22;11231;50.746;4.272;2024-01-11T13:41:43;2.40;99.90
22130;DHT22;11231;50.746;4.272;2024-01-11T13:44:10;2.30;99.90
22130;DHT22;11231;50.746;4.272;2024-01-11T13:46:37;2.40;99.90
22130;DHT22;11231;50.746;4.272;2024-01-11T13:49:03;2.40;99.90
22130;DHT22;11231;50.746;4.272;2024-01-11T13:51:30;2.30;99.90
22130;DHT22;11231;50.746;4.272;2024-01-11T13:53:57;2.30;99.90
22130;DHT22;11231;50.746;4.272;2024-01-11T13:56:25;2.10;99.90
22130;DHT22;11231;50.746;4.272;2024-01-11T13:58:50;2.30;99.90
22130;DHT22;11231;50.746;4.272;2024-01-11T14:01:16;2.40;99.90
22130;DHT22;11231;50.746;4.272;2024-01-11T14:03:42;2.50;99.90
22130;DHT22;11231;50.746;4.272;2024-01-11T14:06:08;2.70;99.90
22130;DHT22;11231;50.746;4.272;2024-01-11T14:08:35;2.80;99.90
22130;DHT22;11231;50.746;4.272;2024-01-11T14:11:01;2.60;99.90
22130;DHT22;11231;50.746;4.272;2024-01-11T14:13:26;2.60;99.90
22130;DHT22;11231;50.746;4.272;2024-01-11T14:15:52;2.60;99.90
22130;DHT22;11231;50.746;4.272;2024-01-11T14:18:22;2.50;99.90
22130;DHT22;11231;50.746;4.272;2024-01-11T14:20:48;2.50;99.90
22130;DHT22;11231;50.746;4.272;2024-01-11T14:23:14;2.50;99.90
22130;DHT22;11231;50.746;4.272;2024-01-11T14:25:40;2.40;99.90
22130;DHT22;11231;50.746;4.272;2024-01-11T14:28:06;2.50;99.90
22130;DHT22;11231;50.746;4.272;2024-01-11T14:30:32;2.50;99.90
22130;DHT22;11231;50.746;4.272;2024-01-11T14:32:58;2.40;99.90
22130;DHT22;11231;50.746;4.272;2024-01-11T14:35:24;2.50;99.90
22130;DHT22;11231;50.746;4.272;2024-01-11T14:37:50;2.50;99.90
22130;DHT22;11231;50.746;4.272;2024-01-11T14:40:19;2.70;99.90
22130;DHT22;11231;50.746;4.272;2024-01-11T14:42:45;2.70;99.90
22130;DHT22;11231;50.746;4.272;2024-01-11T14:45:11;2.60;99.90
22130;DHT22;11231;50.746;4.272;2024-01-11T14:47:37;2.50;99.90
22130;DHT22;11231;50.746;4.272;2024-01-11T14:50:04;2.50;99.90
22130;DHT22;11231;50.746;4.272;2024-01-11T14:52:30;2.50;99.90
22130;DHT22;11231;50.746;4.272;2024-01-11T14:54:58;2.40;99.90
22130;DHT22;11231;50.746;4.272;2024-01-11T14:57:24;2.40;99.90
22130;DHT22;11231;50.746;4.272;2024-01-11T14:59:50;2.50;99.90
22130;DHT22;11231;50.746;4.272;2024-01-11T15:02:16;2.50;99.90
22130;DHT22;11231;50.746;4.272;2024-01-11T15:04:41;2.60;99.90
22130;DHT22;11231;50.746;4.272;2024-01-11T15:07:07;2.50;99.90
22130;DHT22;11231;50.746;4.272;2024-01-11T15:09:36;2.50;99.90
22130;DHT22;11231;50.746;4.272;2024-01-11T15:12:02;2.50;99.90
22130;DHT22;11231;50.746;4.272;2024-01-11T15:14:28;2.40;99.90
22130;DHT22;11231;50.746;4.272;2024-01-11T15:16:54;2.30;99.90
22130;DHT22;11231;50.746;4.272;2024-01-11T15:19:19;2.30;99.90
22130;DHT22;11231;50.746;4.272;2024-01-11T15:21:45;2.20;99.90
22130;DHT22;11231;50.746;4.272;2024-01-11T15:24:11;2.30;99.90
22130;DHT22;11231;50.746;4.272;2024-01-11T15:26:37;2.40;99.90
22130;DHT22;11231;50.746;4.272;2024-01-11T15:29:03;2.30;99.90
22130;DHT22;11231;50.746;4.272;2024-01-11T15:31:29;2.20;99.90
22130;DHT22;11231;50.746;4.272;2024-01-11T15:33:55;2.30;99.90